UAE766 FAOR-OMDB
Flight info
| Callsign | UAE766 |
|---|---|
| Flight time | N/A |
| Altitude | 39000 |
| Route | EGMEN1D EGMEN UQ2 EPSEK UM307 VBR UM310 DV UL437 MOGDU/N0484F410 UL437 VEDET B400 DAXAM Y414 DEDSO R401 VELIK/N0489F400 R401 MUSAP/N0506F350 R401 PEDOG Q308 KIPOK Q568 IMPED |
| Aircraft | A359/H-SDE2E3GHIJ3J4J5LM1ORWXY/LB1D1 |
Departure
| Time | 2026-05-05 19:33 |
|---|---|
| Airport | O.R. Tambo International Airport (FAOR) |
Arrival
| Time | N/A |
|---|---|
| Airport | Dubai International Airport (OMDB) |
| Time | Latitude | Longitude | Altitude | Speed | Heading |
|---|---|---|---|---|---|
| 2026-05-05 18:34 | -26.13019 | 28.23470 | 5538 ft | 0 kts | 6° |
| 2026-05-05 18:37 | -26.13002 | 28.23472 | 5542 ft | 0 kts | 6° |
| 2026-05-05 18:37 | -26.13019 | 28.23470 | 5539 ft | 0 kts | 6° |
| 2026-05-05 19:19 | -26.13029 | 28.23469 | 5511 ft | 4 kts | 6° |
| 2026-05-05 19:19 | -26.13056 | 28.23466 | 5518 ft | 4 kts | 6° |
| 2026-05-05 19:19 | -26.13080 | 28.23463 | 5546 ft | 4 kts | 9° |
| 2026-05-05 19:20 | -26.13100 | 28.23456 | 5546 ft | 4 kts | 45° |
| 2026-05-05 19:20 | -26.13111 | 28.23438 | 5543 ft | 4 kts | 82° |
| 2026-05-05 19:20 | -26.13112 | 28.23408 | 5542 ft | 3 kts | 91° |
| 2026-05-05 19:20 | -26.13112 | 28.23403 | 5541 ft | 4 kts | 91° |
| 2026-05-05 19:24 | -26.13112 | 28.23420 | 5538 ft | 5 kts | 91° |
| 2026-05-05 19:25 | -26.13114 | 28.23491 | 5538 ft | 13 kts | 91° |
| 2026-05-05 19:25 | -26.13125 | 28.23620 | 5538 ft | 19 kts | 97° |
| 2026-05-05 19:25 | -26.13093 | 28.23714 | 5538 ft | 7 kts | 22° |
| 2026-05-05 19:25 | -26.13030 | 28.23733 | 5538 ft | 13 kts | 15° |
| 2026-05-05 19:26 | -26.12930 | 28.23764 | 5538 ft | 14 kts | 15° |
| 2026-05-05 19:26 | -26.12849 | 28.23789 | 5539 ft | 10 kts | 15° |
| 2026-05-05 19:26 | -26.12790 | 28.23807 | 5541 ft | 11 kts | 15° |
| 2026-05-05 19:26 | -26.12712 | 28.23831 | 5544 ft | 10 kts | 15° |
| 2026-05-05 19:27 | -26.12659 | 28.23847 | 5544 ft | 6 kts | 15° |
| 2026-05-05 19:27 | -26.12586 | 28.23870 | 5542 ft | 18 kts | 15° |
| 2026-05-05 19:27 | -26.12423 | 28.23919 | 5544 ft | 28 kts | 15° |
| 2026-05-05 19:27 | -26.12247 | 28.23972 | 5545 ft | 24 kts | 15° |
| 2026-05-05 19:28 | -26.12102 | 28.24017 | 5544 ft | 20 kts | 15° |
| 2026-05-05 19:28 | -26.11984 | 28.24053 | 5544 ft | 16 kts | 15° |
| 2026-05-05 19:28 | -26.11890 | 28.24082 | 5542 ft | 12 kts | 15° |
| 2026-05-05 19:28 | -26.11811 | 28.24106 | 5543 ft | 15 kts | 15° |
| 2026-05-05 19:29 | -26.11664 | 28.24151 | 5544 ft | 28 kts | 16° |
| 2026-05-05 19:29 | -26.11490 | 28.24207 | 5544 ft | 24 kts | 16° |
| 2026-05-05 19:29 | -26.11343 | 28.24254 | 5542 ft | 20 kts | 16° |
| 2026-05-05 19:29 | -26.11222 | 28.24293 | 5543 ft | 16 kts | 16° |
| 2026-05-05 19:30 | -26.11129 | 28.24323 | 5544 ft | 12 kts | 16° |
| 2026-05-05 19:30 | -26.11064 | 28.24344 | 5543 ft | 8 kts | 15° |
| 2026-05-05 19:30 | -26.11023 | 28.24356 | 5541 ft | 8 kts | 14° |
| 2026-05-05 19:30 | -26.10903 | 28.24385 | 5544 ft | 22 kts | 10° |
| 2026-05-05 19:31 | -26.10783 | 28.24428 | 5544 ft | 9 kts | 47° |
| 2026-05-05 19:31 | -26.10773 | 28.24477 | 5538 ft | 5 kts | 93° |
| 2026-05-05 19:31 | -26.10782 | 28.24522 | 5537 ft | 11 kts | 104° |
| 2026-05-05 19:31 | -26.10832 | 28.24598 | 5536 ft | 11 kts | 152° |
| 2026-05-05 19:32 | -26.10885 | 28.24604 | 5536 ft | 4 kts | 195° |
| 2026-05-05 19:32 | -26.10960 | 28.24579 | 5537 ft | 31 kts | 197° |
| 2026-05-05 19:32 | -26.11388 | 28.24447 | 5546 ft | 96 kts | 195° |
| 2026-05-05 19:32 | -26.12223 | 28.24178 | 5543 ft | 154 kts | 197° |
| 2026-05-05 19:33 | -26.13417 | 28.23825 | 5667 ft | 196 kts | 198° |
| 2026-05-05 19:33 | -26.14841 | 28.23471 | 6202 ft | 219 kts | 195° |
| 2026-05-05 19:33 | -26.16423 | 28.23136 | 6672 ft | 253 kts | 194° |
| 2026-05-05 19:33 | -26.18299 | 28.22787 | 7031 ft | 287 kts | 193° |
| 2026-05-05 19:34 | -26.20349 | 28.22513 | 7666 ft | 306 kts | 185° |
| 2026-05-05 19:34 | -26.22454 | 28.22959 | 8880 ft | 311 kts | 161° |
| 2026-05-05 19:34 | -26.24306 | 28.24303 | 9866 ft | 323 kts | 137° |
| 2026-05-05 19:35 | -26.26274 | 28.28930 | 10875 ft | 356 kts | 95° |
| 2026-05-05 19:35 | -26.26399 | 28.31757 | 11224 ft | 373 kts | 82° |
| 2026-05-05 19:35 | -26.25739 | 28.34544 | 11595 ft | 380 kts | 59° |
| 2026-05-05 19:35 | -26.24343 | 28.37074 | 12183 ft | 383 kts | 46° |
| 2026-05-05 19:36 | -26.22615 | 28.39348 | 12960 ft | 384 kts | 40° |
| 2026-05-05 19:36 | -26.20761 | 28.41469 | 13763 ft | 386 kts | 38° |
| 2026-05-05 19:36 | -26.18847 | 28.43560 | 14480 ft | 390 kts | 37° |
| 2026-05-05 19:36 | -26.16886 | 28.45710 | 15182 ft | 393 kts | 38° |
| 2026-05-05 19:37 | -26.14958 | 28.47873 | 15876 ft | 396 kts | 38° |
| 2026-05-05 19:37 | -26.13046 | 28.50071 | 16536 ft | 400 kts | 39° |
| 2026-05-05 19:37 | -26.11094 | 28.52351 | 17175 ft | 405 kts | 39° |
| 2026-05-05 19:37 | -26.09154 | 28.54638 | 17769 ft | 409 kts | 40° |
| 2026-05-05 19:38 | -26.07202 | 28.56949 | 18386 ft | 412 kts | 40° |
| 2026-05-05 19:38 | -26.05248 | 28.59265 | 18880 ft | 416 kts | 40° |
| 2026-05-05 19:38 | -26.03241 | 28.61641 | 19333 ft | 421 kts | 40° |
| 2026-05-05 19:38 | -26.01243 | 28.64003 | 19805 ft | 424 kts | 40° |
| 2026-05-05 19:39 | -25.99204 | 28.66411 | 20288 ft | 428 kts | 40° |
| 2026-05-05 19:39 | -25.97151 | 28.68833 | 20766 ft | 431 kts | 40° |
| 2026-05-05 19:39 | -25.95098 | 28.71253 | 21207 ft | 434 kts | 40° |
| 2026-05-05 19:39 | -25.93004 | 28.73720 | 21676 ft | 437 kts | 40° |
| 2026-05-05 19:40 | -25.90921 | 28.76171 | 22122 ft | 440 kts | 40° |
| 2026-05-05 19:40 | -25.88824 | 28.78637 | 22548 ft | 444 kts | 40° |
| 2026-05-05 19:40 | -25.86693 | 28.81143 | 22974 ft | 447 kts | 40° |
| 2026-05-05 19:40 | -25.84528 | 28.83687 | 23390 ft | 450 kts | 40° |
| 2026-05-05 19:41 | -25.82379 | 28.86210 | 23767 ft | 453 kts | 40° |
| 2026-05-05 19:41 | -25.80220 | 28.88744 | 24105 ft | 456 kts | 40° |
| 2026-05-05 19:41 | -25.78014 | 28.91331 | 24443 ft | 459 kts | 40° |
| 2026-05-05 19:41 | -25.75824 | 28.93898 | 24776 ft | 461 kts | 40° |
| 2026-05-05 19:42 | -25.73623 | 28.96476 | 25134 ft | 464 kts | 40° |
| 2026-05-05 19:42 | -25.71384 | 28.99098 | 25515 ft | 467 kts | 40° |
| 2026-05-05 19:42 | -25.69153 | 29.01710 | 25903 ft | 470 kts | 40° |
| 2026-05-05 19:42 | -25.66879 | 29.04369 | 26272 ft | 473 kts | 40° |
| 2026-05-05 19:43 | -25.64623 | 29.07006 | 26633 ft | 476 kts | 40° |
| 2026-05-05 19:43 | -25.62324 | 29.09691 | 27022 ft | 479 kts | 40° |
| 2026-05-05 19:43 | -25.60033 | 29.12365 | 27403 ft | 482 kts | 40° |
| 2026-05-05 19:43 | -25.57733 | 29.15048 | 27779 ft | 485 kts | 39° |
| 2026-05-05 19:44 | -25.55414 | 29.17752 | 28134 ft | 488 kts | 39° |
| 2026-05-05 19:44 | -25.53043 | 29.20512 | 28518 ft | 490 kts | 39° |
| 2026-05-05 19:44 | -25.50700 | 29.23240 | 28867 ft | 493 kts | 39° |
| 2026-05-05 19:44 | -25.48336 | 29.25990 | 29203 ft | 496 kts | 39° |
| 2026-05-05 19:45 | -25.45943 | 29.28775 | 29520 ft | 499 kts | 39° |
| 2026-05-05 19:45 | -25.43525 | 29.31585 | 29842 ft | 501 kts | 39° |
| 2026-05-05 19:45 | -25.41130 | 29.34368 | 30135 ft | 504 kts | 39° |
| 2026-05-05 19:45 | -25.38694 | 29.37194 | 30372 ft | 506 kts | 39° |
| 2026-05-05 19:46 | -25.36268 | 29.40009 | 30615 ft | 509 kts | 39° |
| 2026-05-05 19:46 | -25.33836 | 29.42830 | 30851 ft | 511 kts | 39° |
| 2026-05-05 19:46 | -25.31362 | 29.45699 | 31178 ft | 511 kts | 39° |
| 2026-05-05 19:46 | -25.28918 | 29.48534 | 31513 ft | 510 kts | 39° |
| 2026-05-05 19:47 | -25.26462 | 29.51379 | 31809 ft | 511 kts | 39° |
| 2026-05-05 19:47 | -25.24034 | 29.54189 | 32182 ft | 510 kts | 39° |
| 2026-05-05 19:47 | -25.21567 | 29.57043 | 32496 ft | 510 kts | 39° |
| 2026-05-05 19:47 | -25.19131 | 29.59858 | 32845 ft | 509 kts | 39° |
| 2026-05-05 19:48 | -25.16699 | 29.62665 | 33140 ft | 510 kts | 38° |
| 2026-05-05 19:48 | -25.14228 | 29.65516 | 33482 ft | 509 kts | 38° |
| 2026-05-05 19:48 | -25.11791 | 29.68327 | 33809 ft | 509 kts | 38° |
| 2026-05-05 19:48 | -25.09353 | 29.71136 | 34095 ft | 509 kts | 38° |
| 2026-05-05 19:49 | -25.06899 | 29.73960 | 34359 ft | 508 kts | 38° |
| 2026-05-05 19:49 | -25.05253 | 29.75855 | 34556 ft | 508 kts | 38° |
| 2026-05-05 19:49 | -25.02014 | 29.79584 | 34933 ft | 507 kts | 38° |
| 2026-05-05 19:49 | -24.99561 | 29.82404 | 35213 ft | 506 kts | 38° |
| 2026-05-05 19:50 | -24.97140 | 29.85186 | 35448 ft | 506 kts | 38° |
| 2026-05-05 19:50 | -24.94687 | 29.88002 | 35751 ft | 504 kts | 37° |
| 2026-05-05 19:50 | -24.92287 | 29.90755 | 36015 ft | 504 kts | 38° |
| 2026-05-05 19:50 | -24.89845 | 29.93555 | 36276 ft | 503 kts | 37° |
| 2026-05-05 19:51 | -24.87443 | 29.96308 | 36472 ft | 503 kts | 37° |
| 2026-05-05 19:51 | -24.85003 | 29.99102 | 36713 ft | 502 kts | 37° |
| 2026-05-05 19:51 | -24.82604 | 30.01846 | 36911 ft | 501 kts | 37° |
| 2026-05-05 19:51 | -24.80181 | 30.04619 | 37136 ft | 500 kts | 37° |
| 2026-05-05 19:52 | -24.77761 | 30.07386 | 37303 ft | 499 kts | 37° |
| 2026-05-05 19:52 | -24.75378 | 30.10111 | 37489 ft | 499 kts | 36° |
| 2026-05-05 19:52 | -24.72955 | 30.12877 | 37726 ft | 498 kts | 36° |
| 2026-05-05 19:52 | -24.70568 | 30.15599 | 37885 ft | 498 kts | 37° |
| 2026-05-05 19:53 | -24.68150 | 30.18357 | 38041 ft | 497 kts | 37° |
| 2026-05-05 19:53 | -24.65767 | 30.21072 | 38179 ft | 498 kts | 37° |
| 2026-05-05 19:53 | -24.63349 | 30.23824 | 38339 ft | 498 kts | 37° |
| 2026-05-05 19:53 | -24.60955 | 30.26549 | 38542 ft | 497 kts | 36° |
| 2026-05-05 19:54 | -24.58541 | 30.29298 | 38701 ft | 497 kts | 36° |
| 2026-05-05 19:54 | -24.56130 | 30.32039 | 38822 ft | 497 kts | 36° |
| 2026-05-05 19:54 | -24.53748 | 30.34744 | 38904 ft | 498 kts | 36° |
| 2026-05-05 19:55 | -24.48898 | 30.40244 | 38917 ft | 503 kts | 37° |
| 2026-05-05 19:55 | -24.44001 | 30.45793 | 38917 ft | 508 kts | 37° |
| 2026-05-05 19:56 | -24.39071 | 30.51380 | 38911 ft | 512 kts | 37° |
| 2026-05-05 19:56 | -24.34100 | 30.57006 | 38903 ft | 513 kts | 37° |
| 2026-05-05 19:57 | -24.29124 | 30.62633 | 38899 ft | 514 kts | 37° |
| 2026-05-05 19:57 | -24.24142 | 30.68259 | 38890 ft | 514 kts | 37° |
| 2026-05-05 19:58 | -24.19191 | 30.73842 | 38886 ft | 514 kts | 37° |
| 2026-05-05 19:58 | -24.14180 | 30.79485 | 38882 ft | 514 kts | 37° |
| 2026-05-05 19:59 | -24.09207 | 30.85078 | 38875 ft | 513 kts | 37° |
| 2026-05-05 19:59 | -24.04235 | 30.90663 | 38871 ft | 512 kts | 37° |
| 2026-05-05 20:00 | -23.99266 | 30.96238 | 38869 ft | 512 kts | 37° |
| 2026-05-05 20:00 | -23.94303 | 31.01800 | 38863 ft | 512 kts | 37° |
| 2026-05-05 20:01 | -23.89310 | 31.07388 | 38864 ft | 512 kts | 37° |
| 2026-05-05 20:01 | -23.84331 | 31.12954 | 38860 ft | 512 kts | 37° |
| 2026-05-05 20:02 | -23.79340 | 31.18527 | 38858 ft | 513 kts | 37° |
| 2026-05-05 20:02 | -23.74371 | 31.24070 | 38854 ft | 513 kts | 37° |
| 2026-05-05 20:03 | -23.69365 | 31.29648 | 38857 ft | 513 kts | 37° |
| 2026-05-05 20:03 | -23.64377 | 31.35198 | 38853 ft | 513 kts | 37° |
| 2026-05-05 20:04 | -23.59388 | 31.40743 | 38857 ft | 513 kts | 38° |
| 2026-05-05 20:04 | -23.55220 | 31.45371 | 38857 ft | 513 kts | 38° |
| 2026-05-05 20:05 | -23.50194 | 31.50947 | 38855 ft | 513 kts | 38° |
| 2026-05-05 20:05 | -23.45131 | 31.56381 | 38854 ft | 508 kts | 32° |
| 2026-05-05 20:06 | -23.39715 | 31.61282 | 38853 ft | 506 kts | 31° |
| 2026-05-05 20:06 | -23.34247 | 31.66066 | 38853 ft | 506 kts | 31° |
| 2026-05-05 20:07 | -23.28726 | 31.70870 | 38854 ft | 506 kts | 31° |
| 2026-05-05 20:07 | -23.23254 | 31.75641 | 38854 ft | 506 kts | 31° |
| 2026-05-05 20:08 | -23.17774 | 31.80423 | 38856 ft | 506 kts | 31° |
| 2026-05-05 20:08 | -23.12279 | 31.85216 | 38859 ft | 506 kts | 31° |
| 2026-05-05 20:09 | -23.06780 | 31.90007 | 38863 ft | 506 kts | 31° |
| 2026-05-05 20:09 | -23.01286 | 31.94788 | 38862 ft | 506 kts | 32° |
| 2026-05-05 20:10 | -22.95804 | 31.99556 | 38865 ft | 507 kts | 32° |
| 2026-05-05 20:10 | -22.90346 | 32.04447 | 38865 ft | 508 kts | 33° |
| 2026-05-05 20:11 | -22.84909 | 32.09393 | 38867 ft | 509 kts | 33° |
| 2026-05-05 20:11 | -22.79485 | 32.14304 | 38861 ft | 509 kts | 33° |
| 2026-05-05 20:12 | -22.74037 | 32.19212 | 38865 ft | 510 kts | 33° |
| 2026-05-05 20:12 | -22.68582 | 32.24115 | 38865 ft | 510 kts | 33° |
| 2026-05-05 20:13 | -22.63117 | 32.29021 | 38868 ft | 511 kts | 33° |
| 2026-05-05 20:13 | -22.57637 | 32.33938 | 38867 ft | 511 kts | 33° |
| 2026-05-05 20:14 | -22.52162 | 32.38844 | 38868 ft | 512 kts | 33° |
| 2026-05-05 20:14 | -22.46683 | 32.43750 | 38870 ft | 512 kts | 33° |
| 2026-05-05 20:15 | -22.41185 | 32.48661 | 38869 ft | 512 kts | 33° |
| 2026-05-05 20:15 | -22.35723 | 32.53537 | 38870 ft | 513 kts | 33° |
| 2026-05-05 20:16 | -22.30223 | 32.58450 | 38871 ft | 513 kts | 33° |
| 2026-05-05 20:16 | -22.24715 | 32.63364 | 38871 ft | 514 kts | 33° |
| 2026-05-05 20:17 | -22.19208 | 32.68267 | 38872 ft | 514 kts | 33° |
| 2026-05-05 20:17 | -22.13703 | 32.73165 | 38874 ft | 514 kts | 33° |
| 2026-05-05 20:18 | -22.08143 | 32.78105 | 38875 ft | 515 kts | 33° |
| 2026-05-05 20:18 | -22.02649 | 32.82988 | 38877 ft | 516 kts | 34° |
| 2026-05-05 20:19 | -21.97155 | 32.87964 | 38880 ft | 516 kts | 34° |
| 2026-05-05 20:19 | -21.91650 | 32.92984 | 38881 ft | 516 kts | 34° |
| 2026-05-05 20:20 | -21.86189 | 32.97946 | 38890 ft | 516 kts | 34° |
| 2026-05-05 20:20 | -21.80697 | 33.02920 | 38888 ft | 516 kts | 34° |
| 2026-05-05 20:21 | -21.75195 | 33.07889 | 38890 ft | 516 kts | 34° |
| 2026-05-05 20:21 | -21.69663 | 33.12808 | 38892 ft | 516 kts | 34° |
| 2026-05-05 20:22 | -21.64128 | 33.17701 | 38890 ft | 515 kts | 34° |
| 2026-05-05 20:22 | -21.58591 | 33.22603 | 38899 ft | 515 kts | 34° |
| 2026-05-05 20:23 | -21.53055 | 33.27508 | 38899 ft | 515 kts | 34° |
| 2026-05-05 20:23 | -21.47530 | 33.32401 | 38901 ft | 515 kts | 34° |
| 2026-05-05 20:24 | -21.42035 | 33.37262 | 38902 ft | 514 kts | 34° |
| 2026-05-05 20:24 | -21.36476 | 33.42173 | 38901 ft | 514 kts | 34° |
| 2026-05-05 20:25 | -21.30957 | 33.47045 | 38906 ft | 514 kts | 34° |
| 2026-05-05 20:25 | -21.25449 | 33.51902 | 38908 ft | 514 kts | 34° |
| 2026-05-05 20:26 | -21.19920 | 33.56772 | 38911 ft | 514 kts | 34° |
| 2026-05-05 20:26 | -21.14394 | 33.61635 | 38913 ft | 514 kts | 34° |
| 2026-05-05 20:27 | -21.08890 | 33.66475 | 38913 ft | 514 kts | 35° |
| 2026-05-05 20:27 | -21.03354 | 33.71336 | 38911 ft | 514 kts | 35° |
| 2026-05-05 20:28 | -20.97844 | 33.76171 | 38916 ft | 514 kts | 35° |
| 2026-05-05 20:28 | -20.92298 | 33.81033 | 38920 ft | 514 kts | 35° |
| 2026-05-05 20:29 | -20.86745 | 33.85895 | 38918 ft | 514 kts | 35° |
| 2026-05-05 20:29 | -20.81245 | 33.90707 | 38920 ft | 514 kts | 35° |
| 2026-05-05 20:30 | -20.75687 | 33.95565 | 38919 ft | 515 kts | 35° |
| 2026-05-05 20:30 | -20.70154 | 34.00398 | 38918 ft | 515 kts | 35° |
| 2026-05-05 20:31 | -20.64756 | 34.05435 | 38918 ft | 516 kts | 38° |
| 2026-05-05 20:31 | -20.59460 | 34.10594 | 38917 ft | 516 kts | 38° |
| 2026-05-05 20:32 | -20.54156 | 34.15719 | 38915 ft | 516 kts | 38° |
| 2026-05-05 20:32 | -20.48774 | 34.20860 | 38921 ft | 516 kts | 38° |
| 2026-05-05 20:33 | -20.43425 | 34.25944 | 38919 ft | 516 kts | 38° |
| 2026-05-05 20:33 | -20.38071 | 34.31029 | 38919 ft | 516 kts | 38° |
| 2026-05-05 20:34 | -20.32770 | 34.36063 | 38916 ft | 506 kts | 38° |
| 2026-05-05 20:34 | -20.27506 | 34.41059 | 38914 ft | 502 kts | 38° |
| 2026-05-05 20:35 | -20.22325 | 34.45965 | 38916 ft | 502 kts | 38° |
| 2026-05-05 20:35 | -20.17085 | 34.50922 | 38918 ft | 502 kts | 38° |
| 2026-05-05 20:36 | -20.11866 | 34.55858 | 38916 ft | 501 kts | 37° |
| 2026-05-05 20:36 | -20.06682 | 34.60756 | 38916 ft | 501 kts | 37° |
| 2026-05-05 20:37 | -20.01467 | 34.65680 | 38913 ft | 501 kts | 37° |
| 2026-05-05 20:37 | -19.96245 | 34.70605 | 38904 ft | 501 kts | 37° |
| 2026-05-05 20:38 | -19.91038 | 34.75511 | 38896 ft | 502 kts | 37° |
| 2026-05-05 20:38 | -19.85802 | 34.80441 | 38887 ft | 502 kts | 37° |
| 2026-05-05 20:39 | -19.80494 | 34.85248 | 38884 ft | 498 kts | 31° |
| 2026-05-05 20:39 | -19.74458 | 34.88611 | 38884 ft | 488 kts | 17° |
| 2026-05-05 20:40 | -19.68062 | 34.91012 | 38888 ft | 487 kts | 14° |
| 2026-05-05 20:40 | -19.61615 | 34.93262 | 38897 ft | 487 kts | 14° |
| 2026-05-05 20:41 | -19.55207 | 34.95504 | 38907 ft | 488 kts | 14° |
| 2026-05-05 20:41 | -19.48741 | 34.97795 | 38918 ft | 488 kts | 14° |
| 2026-05-05 20:42 | -19.42340 | 35.00073 | 38922 ft | 488 kts | 14° |
| 2026-05-05 20:42 | -19.35904 | 35.02364 | 38928 ft | 488 kts | 14° |
| 2026-05-05 20:43 | -19.29461 | 35.04654 | 38929 ft | 488 kts | 14° |
| 2026-05-05 20:43 | -19.23003 | 35.06946 | 38934 ft | 488 kts | 14° |
| 2026-05-05 20:44 | -19.16587 | 35.09222 | 38937 ft | 488 kts | 14° |
| 2026-05-05 20:44 | -19.10161 | 35.11499 | 38938 ft | 488 kts | 14° |
| 2026-05-05 20:45 | -19.00498 | 35.14920 | 38936 ft | 488 kts | 14° |
| 2026-05-05 20:45 | -18.94066 | 35.17194 | 38939 ft | 488 kts | 14° |
| 2026-05-05 20:46 | -18.87613 | 35.19474 | 38941 ft | 488 kts | 14° |
| 2026-05-05 20:46 | -18.81166 | 35.21751 | 38940 ft | 488 kts | 14° |
| 2026-05-05 20:47 | -18.74727 | 35.24023 | 38945 ft | 489 kts | 14° |
| 2026-05-05 20:47 | -18.68267 | 35.26300 | 38944 ft | 489 kts | 14° |
| 2026-05-05 20:48 | -18.61823 | 35.28570 | 38946 ft | 489 kts | 14° |
| 2026-05-05 20:48 | -18.55377 | 35.30842 | 38943 ft | 489 kts | 14° |
| 2026-05-05 20:49 | -18.48914 | 35.33120 | 38947 ft | 489 kts | 14° |
| 2026-05-05 20:49 | -18.42451 | 35.35395 | 38947 ft | 489 kts | 14° |
| 2026-05-05 20:50 | -18.37083 | 35.37284 | 38945 ft | 490 kts | 14° |
| 2026-05-05 20:50 | -18.30599 | 35.39564 | 38946 ft | 490 kts | 14° |
| 2026-05-05 20:51 | -18.24178 | 35.41820 | 38947 ft | 490 kts | 14° |
| 2026-05-05 20:51 | -18.17698 | 35.44095 | 38950 ft | 490 kts | 14° |
| 2026-05-05 20:52 | -18.11230 | 35.46364 | 38956 ft | 490 kts | 14° |
| 2026-05-05 20:52 | -18.04774 | 35.48627 | 38954 ft | 490 kts | 14° |
| 2026-05-05 20:53 | -17.98300 | 35.50895 | 38941 ft | 490 kts | 14° |
| 2026-05-05 20:53 | -17.91825 | 35.53161 | 38943 ft | 490 kts | 14° |
| 2026-05-05 20:54 | -17.85347 | 35.55426 | 38944 ft | 490 kts | 14° |
| 2026-05-05 20:54 | -17.78870 | 35.57690 | 38949 ft | 490 kts | 14° |
| 2026-05-05 20:55 | -17.72423 | 35.59941 | 38949 ft | 490 kts | 14° |
| 2026-05-05 20:55 | -17.65948 | 35.62200 | 38954 ft | 490 kts | 14° |
| 2026-05-05 20:56 | -17.59499 | 35.64449 | 38946 ft | 490 kts | 14° |
| 2026-05-05 20:56 | -17.53020 | 35.66706 | 38956 ft | 490 kts | 14° |
| 2026-05-05 20:57 | -17.46566 | 35.68953 | 38956 ft | 490 kts | 14° |
| 2026-05-05 20:57 | -17.40103 | 35.71198 | 38962 ft | 489 kts | 14° |
| 2026-05-05 20:58 | -17.33632 | 35.73444 | 38965 ft | 489 kts | 14° |
| 2026-05-05 20:58 | -17.27179 | 35.75682 | 38966 ft | 490 kts | 14° |
| 2026-05-05 20:59 | -17.20689 | 35.77933 | 38966 ft | 490 kts | 14° |
| 2026-05-05 20:59 | -17.14247 | 35.80165 | 38964 ft | 490 kts | 14° |
| 2026-05-05 21:00 | -17.07774 | 35.82406 | 38965 ft | 490 kts | 15° |
| 2026-05-05 21:00 | -17.01283 | 35.84652 | 38968 ft | 490 kts | 14° |
| 2026-05-05 21:01 | -16.94817 | 35.86887 | 38968 ft | 490 kts | 15° |
| 2026-05-05 21:01 | -16.88352 | 35.89120 | 38971 ft | 491 kts | 15° |
| 2026-05-05 21:02 | -16.81842 | 35.91367 | 38975 ft | 491 kts | 15° |
| 2026-05-05 21:02 | -16.75383 | 35.93595 | 38977 ft | 491 kts | 15° |
| 2026-05-05 21:03 | -16.68873 | 35.95839 | 38976 ft | 491 kts | 15° |
| 2026-05-05 21:03 | -16.62378 | 35.98077 | 38982 ft | 491 kts | 15° |
| 2026-05-05 21:04 | -16.55915 | 36.00301 | 38987 ft | 491 kts | 15° |
| 2026-05-05 21:04 | -16.49415 | 36.02536 | 38989 ft | 491 kts | 15° |
| 2026-05-05 21:05 | -16.42958 | 36.04756 | 38993 ft | 491 kts | 15° |
| 2026-05-05 21:05 | -16.36431 | 36.06998 | 39001 ft | 491 kts | 15° |
| 2026-05-05 21:06 | -16.29967 | 36.09217 | 39000 ft | 491 kts | 15° |
| 2026-05-05 21:06 | -16.23471 | 36.11445 | 39005 ft | 491 kts | 15° |
| 2026-05-05 21:07 | -16.16976 | 36.13671 | 39009 ft | 492 kts | 15° |
| 2026-05-05 21:07 | -16.10451 | 36.15906 | 39012 ft | 492 kts | 15° |
| 2026-05-05 21:08 | -16.03966 | 36.18126 | 39013 ft | 492 kts | 15° |
| 2026-05-05 21:08 | -15.97499 | 36.20339 | 39021 ft | 492 kts | 15° |
| 2026-05-05 21:09 | -15.90991 | 36.22532 | 39019 ft | 492 kts | 14° |
| 2026-05-05 21:09 | -15.84456 | 36.24709 | 39026 ft | 492 kts | 14° |
| 2026-05-05 21:10 | -15.77965 | 36.26873 | 39022 ft | 492 kts | 14° |
| 2026-05-05 21:10 | -15.71432 | 36.29056 | 39028 ft | 492 kts | 14° |
| 2026-05-05 21:11 | -15.64907 | 36.31236 | 39027 ft | 492 kts | 14° |
| 2026-05-05 21:11 | -15.58394 | 36.33412 | 39031 ft | 493 kts | 15° |
| 2026-05-05 21:12 | -15.51864 | 36.35591 | 39029 ft | 493 kts | 15° |
| 2026-05-05 21:12 | -15.45380 | 36.37753 | 39027 ft | 493 kts | 15° |
| 2026-05-05 21:13 | -15.38847 | 36.39930 | 39027 ft | 493 kts | 15° |
| 2026-05-05 21:13 | -15.32302 | 36.42110 | 39023 ft | 493 kts | 15° |
| 2026-05-05 21:14 | -15.25737 | 36.44295 | 39027 ft | 494 kts | 15° |
| 2026-05-05 21:14 | -15.19233 | 36.46459 | 39028 ft | 494 kts | 15° |
| 2026-05-05 21:15 | -15.12682 | 36.48636 | 39022 ft | 494 kts | 15° |
| 2026-05-05 21:15 | -15.06116 | 36.50817 | 39025 ft | 494 kts | 15° |
| 2026-05-05 21:16 | -14.99588 | 36.52984 | 39021 ft | 494 kts | 15° |
| 2026-05-05 21:16 | -14.93026 | 36.55161 | 39019 ft | 495 kts | 15° |
| 2026-05-05 21:17 | -14.86496 | 36.57326 | 39021 ft | 495 kts | 15° |
| 2026-05-05 21:17 | -14.79939 | 36.59499 | 39019 ft | 495 kts | 15° |
| 2026-05-05 21:18 | -14.73375 | 36.61671 | 39017 ft | 495 kts | 15° |
| 2026-05-05 21:18 | -14.66804 | 36.63846 | 39019 ft | 495 kts | 15° |
| 2026-05-05 21:19 | -14.60270 | 36.66007 | 39015 ft | 495 kts | 15° |
| 2026-05-05 21:19 | -14.53705 | 36.68176 | 39015 ft | 495 kts | 15° |
| 2026-05-05 21:20 | -14.47124 | 36.70350 | 39015 ft | 495 kts | 15° |
| 2026-05-05 21:20 | -14.40568 | 36.72514 | 39017 ft | 495 kts | 15° |
| 2026-05-05 21:21 | -14.34012 | 36.74676 | 39017 ft | 495 kts | 15° |
| 2026-05-05 21:21 | -14.27433 | 36.76846 | 39019 ft | 495 kts | 15° |
| 2026-05-05 21:22 | -14.20887 | 36.79002 | 39025 ft | 495 kts | 15° |
| 2026-05-05 21:22 | -14.14310 | 36.81168 | 39022 ft | 495 kts | 15° |
| 2026-05-05 21:23 | -14.07782 | 36.83316 | 39025 ft | 495 kts | 15° |
| 2026-05-05 21:23 | -14.01193 | 36.85484 | 39028 ft | 495 kts | 15° |
| 2026-05-05 21:24 | -13.94643 | 36.87671 | 39032 ft | 495 kts | 16° |
| 2026-05-05 21:24 | -13.88092 | 36.89871 | 39031 ft | 495 kts | 16° |
| 2026-05-05 21:25 | -13.81534 | 36.92070 | 39031 ft | 496 kts | 16° |
| 2026-05-05 21:25 | -13.74951 | 36.94272 | 39035 ft | 496 kts | 16° |
| 2026-05-05 21:26 | -13.68422 | 36.96454 | 39035 ft | 496 kts | 16° |
| 2026-05-05 21:26 | -13.61865 | 36.98643 | 39036 ft | 496 kts | 16° |
| 2026-05-05 21:27 | -13.55311 | 37.00831 | 39029 ft | 496 kts | 16° |
| 2026-05-05 21:27 | -13.48740 | 37.03023 | 39030 ft | 496 kts | 16° |
| 2026-05-05 21:28 | -13.42209 | 37.05201 | 39028 ft | 496 kts | 16° |
| 2026-05-05 21:28 | -13.35626 | 37.07395 | 39026 ft | 496 kts | 16° |
| 2026-05-05 21:29 | -13.29067 | 37.09580 | 39024 ft | 496 kts | 16° |
| 2026-05-05 21:29 | -13.22519 | 37.11758 | 39021 ft | 496 kts | 16° |
| 2026-05-05 21:30 | -13.15973 | 37.13936 | 39017 ft | 496 kts | 16° |
| 2026-05-05 21:30 | -13.09404 | 37.16120 | 39016 ft | 496 kts | 16° |
| 2026-05-05 21:31 | -13.02837 | 37.18302 | 39011 ft | 496 kts | 16° |
| 2026-05-05 21:31 | -12.96249 | 37.20490 | 39011 ft | 496 kts | 16° |
| 2026-05-05 21:32 | -12.89683 | 37.22669 | 39006 ft | 496 kts | 16° |
| 2026-05-05 21:32 | -12.83106 | 37.24851 | 39001 ft | 496 kts | 16° |
| 2026-05-05 21:33 | -12.76574 | 37.27051 | 38997 ft | 497 kts | 17° |
| 2026-05-05 21:33 | -12.70013 | 37.29319 | 38999 ft | 497 kts | 17° |
| 2026-05-05 21:34 | -12.63452 | 37.31586 | 39000 ft | 497 kts | 17° |
| 2026-05-05 21:34 | -12.56883 | 37.33845 | 38999 ft | 497 kts | 17° |
| 2026-05-05 21:35 | -12.50369 | 37.36079 | 38996 ft | 497 kts | 17° |
| 2026-05-05 21:35 | -12.43800 | 37.38330 | 38993 ft | 496 kts | 17° |
| 2026-05-05 21:36 | -12.38381 | 37.40186 | 38991 ft | 496 kts | 17° |
| 2026-05-05 21:36 | -12.31797 | 37.42440 | 38989 ft | 496 kts | 17° |
| 2026-05-05 21:37 | -12.25289 | 37.44668 | 38992 ft | 496 kts | 17° |
| 2026-05-05 21:37 | -12.18702 | 37.46921 | 38996 ft | 496 kts | 17° |
| 2026-05-05 21:38 | -12.12172 | 37.49153 | 38990 ft | 496 kts | 17° |
| 2026-05-05 21:38 | -12.05645 | 37.51383 | 38989 ft | 496 kts | 17° |
| 2026-05-05 21:39 | -11.99103 | 37.53617 | 38987 ft | 497 kts | 17° |
| 2026-05-05 21:39 | -11.92532 | 37.55860 | 38989 ft | 497 kts | 17° |
| 2026-05-05 21:40 | -11.85986 | 37.58094 | 38988 ft | 497 kts | 17° |
| 2026-05-05 21:40 | -11.79395 | 37.60341 | 38985 ft | 497 kts | 17° |
| 2026-05-05 21:41 | -11.72878 | 37.62562 | 38987 ft | 497 kts | 17° |
| 2026-05-05 21:41 | -11.66314 | 37.64798 | 38988 ft | 497 kts | 17° |
| 2026-05-05 21:42 | -11.59753 | 37.67019 | 38989 ft | 497 kts | 17° |
| 2026-05-05 21:42 | -11.53157 | 37.69176 | 38986 ft | 497 kts | 17° |
| 2026-05-05 21:43 | -11.46583 | 37.71311 | 38984 ft | 497 kts | 17° |
| 2026-05-05 21:43 | -11.39983 | 37.73466 | 38985 ft | 497 kts | 17° |
| 2026-05-05 21:44 | -11.33385 | 37.75627 | 38985 ft | 497 kts | 17° |
| 2026-05-05 21:44 | -11.26811 | 37.77779 | 38985 ft | 497 kts | 17° |
| 2026-05-05 21:45 | -11.20224 | 37.79935 | 38984 ft | 497 kts | 17° |
| 2026-05-05 21:45 | -11.13725 | 37.82061 | 38987 ft | 497 kts | 17° |
| 2026-05-05 21:46 | -11.07151 | 37.84209 | 38986 ft | 497 kts | 17° |
| 2026-05-05 21:46 | -11.00575 | 37.86358 | 38987 ft | 497 kts | 17° |
| 2026-05-05 21:47 | -10.93993 | 37.88508 | 38989 ft | 497 kts | 17° |
| 2026-05-05 21:47 | -10.87400 | 37.90660 | 38988 ft | 497 kts | 17° |
| 2026-05-05 21:48 | -10.80791 | 37.92816 | 38993 ft | 497 kts | 17° |
| 2026-05-05 21:48 | -10.74207 | 37.94963 | 38991 ft | 496 kts | 17° |
| 2026-05-05 21:49 | -10.67674 | 37.97093 | 38992 ft | 496 kts | 17° |
| 2026-05-05 21:49 | -10.61107 | 37.99232 | 38993 ft | 496 kts | 17° |
| 2026-05-05 21:50 | -10.54516 | 38.01379 | 38999 ft | 496 kts | 17° |
| 2026-05-05 21:50 | -10.47948 | 38.03517 | 38999 ft | 496 kts | 18° |
| 2026-05-05 21:51 | -10.41387 | 38.05652 | 38998 ft | 495 kts | 18° |
| 2026-05-05 21:51 | -10.34826 | 38.07786 | 38995 ft | 495 kts | 18° |
| 2026-05-05 21:52 | -10.24972 | 38.10989 | 38995 ft | 495 kts | 18° |
| 2026-05-05 21:53 | -10.18442 | 38.13111 | 38996 ft | 495 kts | 18° |
| 2026-05-05 21:53 | -10.11850 | 38.15251 | 38991 ft | 495 kts | 18° |
| 2026-05-05 21:54 | -10.05293 | 38.17380 | 38994 ft | 495 kts | 18° |
| 2026-05-05 21:54 | -9.98772 | 38.19495 | 38995 ft | 495 kts | 18° |
| 2026-05-05 21:55 | -9.92181 | 38.21633 | 38994 ft | 495 kts | 18° |
| 2026-05-05 21:55 | -9.85650 | 38.23751 | 38993 ft | 495 kts | 18° |
| 2026-05-05 21:56 | -9.79078 | 38.25881 | 38993 ft | 495 kts | 18° |
| 2026-05-05 21:56 | -9.72548 | 38.27996 | 38995 ft | 495 kts | 17° |
| 2026-05-05 21:57 | -9.65995 | 38.30118 | 38993 ft | 495 kts | 17° |
| 2026-05-05 21:57 | -9.59434 | 38.32241 | 38993 ft | 495 kts | 17° |
| 2026-05-05 21:58 | -9.52853 | 38.34371 | 38989 ft | 495 kts | 17° |
| 2026-05-05 21:58 | -9.46333 | 38.36479 | 38989 ft | 495 kts | 17° |
| 2026-05-05 21:59 | -9.39778 | 38.38598 | 38988 ft | 495 kts | 17° |
| 2026-05-05 21:59 | -9.33199 | 38.40724 | 38992 ft | 495 kts | 17° |
| 2026-05-05 22:00 | -9.26645 | 38.42841 | 38993 ft | 495 kts | 17° |
| 2026-05-05 22:00 | -9.20109 | 38.44951 | 38987 ft | 494 kts | 18° |
| 2026-05-05 22:01 | -9.13555 | 38.47066 | 38989 ft | 494 kts | 18° |
| 2026-05-05 22:01 | -9.07004 | 38.49180 | 38984 ft | 494 kts | 18° |
| 2026-05-05 22:02 | -9.00459 | 38.51291 | 38984 ft | 493 kts | 18° |
| 2026-05-05 22:02 | -8.93917 | 38.53400 | 38983 ft | 492 kts | 18° |
| 2026-05-05 22:03 | -8.87387 | 38.55504 | 38981 ft | 492 kts | 18° |
| 2026-05-05 22:03 | -8.80900 | 38.57594 | 38975 ft | 492 kts | 18° |
| 2026-05-05 22:04 | -8.74375 | 38.59695 | 38980 ft | 492 kts | 18° |
| 2026-05-05 22:04 | -8.67845 | 38.61798 | 38983 ft | 492 kts | 18° |
| 2026-05-05 22:05 | -8.61298 | 38.63904 | 38978 ft | 492 kts | 18° |
| 2026-05-05 22:05 | -8.54766 | 38.66006 | 38976 ft | 492 kts | 18° |
| 2026-05-05 22:06 | -8.48275 | 38.68093 | 38979 ft | 492 kts | 18° |
| 2026-05-05 22:06 | -8.41725 | 38.70202 | 38975 ft | 492 kts | 18° |
| 2026-05-05 22:07 | -8.35194 | 38.72305 | 38972 ft | 492 kts | 18° |
| 2026-05-05 22:07 | -8.28676 | 38.74404 | 38974 ft | 492 kts | 18° |
| 2026-05-05 22:08 | -8.22194 | 38.76489 | 38968 ft | 492 kts | 18° |
| 2026-05-05 22:08 | -8.15664 | 38.78590 | 38966 ft | 492 kts | 18° |
| 2026-05-05 22:09 | -8.09140 | 38.80688 | 38966 ft | 492 kts | 18° |
| 2026-05-05 22:09 | -8.02655 | 38.82773 | 38964 ft | 491 kts | 18° |
| 2026-05-05 22:10 | -7.96143 | 38.84867 | 38965 ft | 491 kts | 18° |
| 2026-05-05 22:10 | -7.89622 | 38.86961 | 38962 ft | 491 kts | 18° |
| 2026-05-05 22:11 | -7.83114 | 38.89051 | 38962 ft | 491 kts | 18° |
| 2026-05-05 22:11 | -7.76610 | 38.91139 | 38959 ft | 491 kts | 18° |
| 2026-05-05 22:12 | -7.70091 | 38.93232 | 38959 ft | 490 kts | 18° |
| 2026-05-05 22:12 | -7.63578 | 38.95321 | 38960 ft | 490 kts | 18° |
| 2026-05-05 22:13 | -7.57113 | 38.97395 | 38956 ft | 490 kts | 18° |
| 2026-05-05 22:13 | -7.50606 | 38.99481 | 38959 ft | 490 kts | 18° |
| 2026-05-05 22:14 | -7.44109 | 39.01564 | 38959 ft | 490 kts | 18° |
| 2026-05-05 22:14 | -7.37613 | 39.03646 | 38957 ft | 490 kts | 18° |
| 2026-05-05 22:15 | -7.31111 | 39.05729 | 38958 ft | 489 kts | 18° |
| 2026-05-05 22:15 | -7.24623 | 39.07807 | 38956 ft | 489 kts | 18° |
| 2026-05-05 22:16 | -7.18146 | 39.09880 | 38961 ft | 488 kts | 18° |
| 2026-05-05 22:16 | -7.11700 | 39.11943 | 38954 ft | 488 kts | 18° |
| 2026-05-05 22:17 | -7.05225 | 39.14015 | 38950 ft | 488 kts | 18° |
| 2026-05-05 22:17 | -6.98752 | 39.16086 | 38951 ft | 488 kts | 18° |
| 2026-05-05 22:18 | -6.92286 | 39.18158 | 38950 ft | 488 kts | 18° |
| 2026-05-05 22:18 | -6.86194 | 39.21094 | 38954 ft | 486 kts | 32° |
| 2026-05-05 22:19 | -6.80540 | 39.24818 | 38945 ft | 486 kts | 34° |
| 2026-05-05 22:19 | -6.74956 | 39.28665 | 38944 ft | 486 kts | 35° |
| 2026-05-05 22:20 | -6.69394 | 39.32496 | 38944 ft | 485 kts | 34° |
| 2026-05-05 22:20 | -6.63818 | 39.36311 | 38943 ft | 484 kts | 34° |
| 2026-05-05 22:21 | -6.58236 | 39.40116 | 38940 ft | 483 kts | 34° |
| 2026-05-05 22:21 | -6.52675 | 39.43904 | 38939 ft | 482 kts | 34° |
| 2026-05-05 22:22 | -6.47107 | 39.47697 | 38930 ft | 482 kts | 34° |
| 2026-05-05 22:22 | -6.41585 | 39.51458 | 38931 ft | 482 kts | 34° |
| 2026-05-05 22:23 | -6.36016 | 39.55250 | 38936 ft | 482 kts | 34° |
| 2026-05-05 22:23 | -6.30477 | 39.59022 | 38930 ft | 482 kts | 34° |
| 2026-05-05 22:24 | -6.24920 | 39.62804 | 38935 ft | 481 kts | 34° |
| 2026-05-05 22:24 | -6.19375 | 39.66542 | 38928 ft | 481 kts | 34° |
| 2026-05-05 22:25 | -6.13807 | 39.70259 | 38933 ft | 480 kts | 34° |
| 2026-05-05 22:25 | -6.08243 | 39.73979 | 38932 ft | 480 kts | 34° |
| 2026-05-05 22:26 | -6.02684 | 39.77701 | 38929 ft | 480 kts | 34° |
| 2026-05-05 22:26 | -5.97134 | 39.81420 | 38928 ft | 480 kts | 34° |
| 2026-05-05 22:27 | -5.92487 | 39.84533 | 38933 ft | 480 kts | 34° |
| 2026-05-05 22:27 | -5.86919 | 39.88262 | 38930 ft | 480 kts | 34° |
| 2026-05-05 22:28 | -5.81383 | 39.91968 | 38923 ft | 480 kts | 34° |
| 2026-05-05 22:28 | -5.75810 | 39.95699 | 38926 ft | 481 kts | 34° |
| 2026-05-05 22:29 | -5.70232 | 39.99432 | 38926 ft | 481 kts | 34° |
| 2026-05-05 22:29 | -5.64674 | 40.03151 | 38928 ft | 481 kts | 34° |
| 2026-05-05 22:30 | -5.59109 | 40.06873 | 38929 ft | 481 kts | 35° |
| 2026-05-05 22:30 | -5.53531 | 40.10603 | 38926 ft | 481 kts | 35° |
| 2026-05-05 22:31 | -5.47951 | 40.14333 | 38922 ft | 481 kts | 35° |
| 2026-05-05 22:31 | -5.42409 | 40.18038 | 38925 ft | 481 kts | 35° |
| 2026-05-05 22:32 | -5.36840 | 40.21760 | 38924 ft | 480 kts | 35° |
| 2026-05-05 22:32 | -5.31286 | 40.25470 | 38922 ft | 480 kts | 35° |
| 2026-05-05 22:33 | -5.25719 | 40.29189 | 38919 ft | 480 kts | 35° |
| 2026-05-05 22:33 | -5.20153 | 40.32906 | 38920 ft | 480 kts | 35° |
| 2026-05-05 22:34 | -5.14596 | 40.36617 | 38922 ft | 480 kts | 35° |
| 2026-05-05 22:34 | -5.09085 | 40.40387 | 38920 ft | 479 kts | 38° |
| 2026-05-05 22:35 | -5.03883 | 40.44511 | 38919 ft | 478 kts | 40° |
| 2026-05-05 22:35 | -4.98715 | 40.48726 | 38912 ft | 478 kts | 40° |
| 2026-05-05 22:36 | -4.93523 | 40.52877 | 38909 ft | 478 kts | 40° |
| 2026-05-05 22:36 | -4.88288 | 40.57001 | 38917 ft | 478 kts | 39° |
| 2026-05-05 22:37 | -4.83018 | 40.61113 | 38906 ft | 478 kts | 37° |
| 2026-05-05 22:37 | -4.77433 | 40.64734 | 38914 ft | 479 kts | 33° |
| 2026-05-05 22:38 | -4.71779 | 40.68199 | 38908 ft | 479 kts | 33° |
| 2026-05-05 22:38 | -4.66076 | 40.71661 | 38911 ft | 479 kts | 33° |
| 2026-05-05 22:39 | -4.60387 | 40.75123 | 38917 ft | 479 kts | 33° |
| 2026-05-05 22:39 | -4.54684 | 40.78601 | 38915 ft | 479 kts | 33° |
| 2026-05-05 22:40 | -4.48988 | 40.82078 | 38915 ft | 479 kts | 33° |
| 2026-05-05 22:40 | -4.43301 | 40.85548 | 38914 ft | 478 kts | 33° |
| 2026-05-05 22:41 | -4.37631 | 40.89007 | 38912 ft | 478 kts | 33° |
| 2026-05-05 22:41 | -4.31934 | 40.92482 | 38913 ft | 478 kts | 33° |
| 2026-05-05 22:42 | -4.26248 | 40.95949 | 38912 ft | 479 kts | 33° |
| 2026-05-05 22:42 | -4.20559 | 40.99418 | 38912 ft | 479 kts | 33° |
| 2026-05-05 22:43 | -4.14903 | 41.02867 | 38907 ft | 479 kts | 33° |
| 2026-05-05 22:43 | -4.09205 | 41.06340 | 38909 ft | 479 kts | 33° |
| 2026-05-05 22:44 | -4.03499 | 41.09816 | 38908 ft | 479 kts | 33° |
| 2026-05-05 22:44 | -3.97891 | 41.13455 | 38910 ft | 478 kts | 37° |
| 2026-05-05 22:45 | -3.92530 | 41.17361 | 38904 ft | 478 kts | 38° |
| 2026-05-05 22:45 | -3.87173 | 41.21336 | 38907 ft | 478 kts | 38° |
| 2026-05-05 22:46 | -3.81853 | 41.25287 | 38906 ft | 478 kts | 38° |
| 2026-05-05 22:46 | -3.76506 | 41.29248 | 38905 ft | 478 kts | 38° |
| 2026-05-05 22:47 | -3.71152 | 41.33209 | 38900 ft | 478 kts | 38° |
| 2026-05-05 22:47 | -3.65807 | 41.37163 | 38905 ft | 478 kts | 38° |
| 2026-05-05 22:48 | -3.60458 | 41.41118 | 38903 ft | 477 kts | 38° |
| 2026-05-05 22:48 | -3.55141 | 41.45050 | 38904 ft | 477 kts | 38° |
| 2026-05-05 22:49 | -3.49789 | 41.49007 | 38899 ft | 477 kts | 38° |
| 2026-05-05 22:49 | -3.44473 | 41.52938 | 38902 ft | 477 kts | 38° |
| 2026-05-05 22:50 | -3.39122 | 41.56893 | 38899 ft | 476 kts | 38° |
| 2026-05-05 22:50 | -3.33814 | 41.60816 | 38899 ft | 476 kts | 38° |
| 2026-05-05 22:51 | -3.28469 | 41.64765 | 38900 ft | 476 kts | 38° |
| 2026-05-05 22:51 | -3.23158 | 41.68690 | 38901 ft | 476 kts | 38° |
| 2026-05-05 22:52 | -3.17810 | 41.72641 | 38899 ft | 477 kts | 38° |
| 2026-05-05 22:52 | -3.12467 | 41.76588 | 38903 ft | 477 kts | 38° |
| 2026-05-05 22:53 | -3.07134 | 41.80527 | 38900 ft | 477 kts | 38° |
| 2026-05-05 22:53 | -3.01781 | 41.84480 | 38898 ft | 477 kts | 38° |
| 2026-05-05 22:54 | -2.96466 | 41.88404 | 38895 ft | 477 kts | 38° |
| 2026-05-05 22:54 | -2.91122 | 41.92349 | 38897 ft | 478 kts | 38° |
| 2026-05-05 22:55 | -2.85760 | 41.96308 | 38897 ft | 478 kts | 38° |
| 2026-05-05 22:55 | -2.80427 | 42.00244 | 38896 ft | 478 kts | 38° |
| 2026-05-05 22:56 | -2.75066 | 42.04201 | 38896 ft | 478 kts | 38° |
| 2026-05-05 22:56 | -2.69706 | 42.08155 | 38895 ft | 479 kts | 38° |
| 2026-05-05 22:57 | -2.64340 | 42.12115 | 38894 ft | 479 kts | 38° |
| 2026-05-05 22:57 | -2.58976 | 42.16073 | 38892 ft | 479 kts | 38° |
| 2026-05-05 22:58 | -2.53645 | 42.20005 | 38893 ft | 479 kts | 38° |
| 2026-05-05 22:58 | -2.48279 | 42.23963 | 38892 ft | 479 kts | 38° |
| 2026-05-05 22:59 | -2.42918 | 42.27917 | 38888 ft | 479 kts | 38° |
| 2026-05-05 22:59 | -2.37553 | 42.31874 | 38892 ft | 479 kts | 38° |
| 2026-05-05 23:00 | -2.29499 | 42.37812 | 38889 ft | 479 kts | 38° |
| 2026-05-05 23:00 | -2.24165 | 42.41745 | 38891 ft | 479 kts | 38° |
| 2026-05-05 23:01 | -2.18777 | 42.45677 | 38882 ft | 479 kts | 37° |
| 2026-05-05 23:01 | -2.13289 | 42.49465 | 38883 ft | 480 kts | 36° |
| 2026-05-05 23:02 | -2.07771 | 42.53237 | 38881 ft | 480 kts | 36° |
| 2026-05-05 23:02 | -2.02274 | 42.57025 | 38886 ft | 480 kts | 36° |
| 2026-05-05 23:03 | -1.96774 | 42.60822 | 38887 ft | 480 kts | 36° |
| 2026-05-05 23:03 | -1.91272 | 42.64543 | 38884 ft | 480 kts | 35° |
| 2026-05-05 23:04 | -1.85734 | 42.68275 | 38888 ft | 480 kts | 35° |
| 2026-05-05 23:04 | -1.80194 | 42.72019 | 38884 ft | 480 kts | 35° |
| 2026-05-05 23:05 | -1.74659 | 42.75768 | 38884 ft | 480 kts | 35° |
| 2026-05-05 23:05 | -1.69159 | 42.79494 | 38886 ft | 480 kts | 35° |
| 2026-05-05 23:06 | -1.63620 | 42.83247 | 38879 ft | 480 kts | 35° |
| 2026-05-05 23:06 | -1.58089 | 42.86993 | 38882 ft | 480 kts | 35° |
| 2026-05-05 23:07 | -1.52548 | 42.90746 | 38881 ft | 480 kts | 35° |
| 2026-05-05 23:07 | -1.47007 | 42.94499 | 38883 ft | 481 kts | 35° |
| 2026-05-05 23:08 | -1.41504 | 42.98225 | 38879 ft | 481 kts | 35° |
| 2026-05-05 23:08 | -1.35948 | 43.01987 | 38879 ft | 481 kts | 35° |
| 2026-05-05 23:09 | -1.30421 | 43.05732 | 38880 ft | 479 kts | 35° |
| 2026-05-05 23:09 | -1.24910 | 43.09463 | 38880 ft | 478 kts | 34° |
| 2026-05-05 23:10 | -1.19405 | 43.13189 | 38880 ft | 478 kts | 35° |
| 2026-05-05 23:10 | -1.14826 | 43.16288 | 38880 ft | 478 kts | 35° |
| 2026-05-05 23:11 | -1.08408 | 43.20633 | 38876 ft | 478 kts | 35° |
| 2026-05-05 23:11 | -1.03785 | 43.23763 | 38874 ft | 478 kts | 35° |
| 2026-05-05 23:12 | -0.98305 | 43.27472 | 38876 ft | 478 kts | 35° |
| 2026-05-05 23:12 | -0.92778 | 43.31214 | 38875 ft | 478 kts | 35° |
| 2026-05-05 23:13 | -0.87283 | 43.34933 | 38878 ft | 478 kts | 35° |
| 2026-05-05 23:13 | -0.81784 | 43.38655 | 38877 ft | 479 kts | 35° |
| 2026-05-05 23:14 | -0.76261 | 43.42393 | 38876 ft | 479 kts | 35° |
| 2026-05-05 23:14 | -0.70747 | 43.46125 | 38877 ft | 479 kts | 35° |
| 2026-05-05 23:15 | -0.65232 | 43.49858 | 38872 ft | 479 kts | 35° |
| 2026-05-05 23:15 | -0.59724 | 43.53585 | 38875 ft | 479 kts | 35° |
| 2026-05-05 23:16 | -0.54199 | 43.57325 | 38875 ft | 479 kts | 35° |
| 2026-05-05 23:16 | -0.48655 | 43.61076 | 38876 ft | 479 kts | 35° |
| 2026-05-05 23:17 | -0.43138 | 43.64810 | 38874 ft | 479 kts | 35° |
| 2026-05-05 23:17 | -0.37641 | 43.68529 | 38877 ft | 479 kts | 35° |
| 2026-05-05 23:18 | -0.32101 | 43.72279 | 38876 ft | 479 kts | 35° |
| 2026-05-05 23:18 | -0.26588 | 43.76009 | 38877 ft | 479 kts | 35° |
| 2026-05-05 23:19 | -0.21103 | 43.79721 | 38878 ft | 479 kts | 35° |
| 2026-05-05 23:19 | -0.15586 | 43.83454 | 38871 ft | 479 kts | 35° |
| 2026-05-05 23:20 | -0.10064 | 43.87191 | 38872 ft | 479 kts | 35° |
| 2026-05-05 23:20 | -0.04531 | 43.90935 | 38873 ft | 480 kts | 35° |
| 2026-05-05 23:21 | 0.00979 | 43.94664 | 38874 ft | 479 kts | 35° |
| 2026-05-05 23:21 | 0.06491 | 43.98394 | 38874 ft | 480 kts | 35° |
| 2026-05-05 23:22 | 0.12016 | 44.02132 | 38871 ft | 480 kts | 35° |
| 2026-05-05 23:22 | 0.17558 | 44.05882 | 38871 ft | 480 kts | 35° |
| 2026-05-05 23:23 | 0.23084 | 44.09620 | 38869 ft | 481 kts | 35° |
| 2026-05-05 23:23 | 0.28633 | 44.13376 | 38871 ft | 481 kts | 35° |
| 2026-05-05 23:24 | 0.34182 | 44.17131 | 38870 ft | 481 kts | 34° |
| 2026-05-05 23:24 | 0.39759 | 44.20890 | 38866 ft | 482 kts | 34° |
| 2026-05-05 23:25 | 0.45288 | 44.24610 | 38869 ft | 483 kts | 34° |
| 2026-05-05 23:25 | 0.50895 | 44.28384 | 38869 ft | 484 kts | 34° |
| 2026-05-05 23:26 | 0.56481 | 44.32145 | 38866 ft | 484 kts | 34° |
| 2026-05-05 23:26 | 0.62039 | 44.35889 | 38867 ft | 485 kts | 34° |
| 2026-05-05 23:27 | 0.67627 | 44.39654 | 38865 ft | 485 kts | 34° |
| 2026-05-05 23:27 | 0.73256 | 44.43447 | 38868 ft | 486 kts | 34° |
| 2026-05-05 23:28 | 0.78835 | 44.47205 | 38867 ft | 487 kts | 34° |
| 2026-05-05 23:28 | 0.84449 | 44.50987 | 38869 ft | 487 kts | 34° |
| 2026-05-05 23:29 | 0.90091 | 44.54788 | 38866 ft | 488 kts | 34° |
| 2026-05-05 23:29 | 0.95713 | 44.58576 | 38868 ft | 488 kts | 34° |
| 2026-05-05 23:30 | 1.01355 | 44.62378 | 38868 ft | 489 kts | 34° |
| 2026-05-05 23:30 | 1.07014 | 44.66191 | 38866 ft | 490 kts | 34° |
| 2026-05-05 23:31 | 1.12663 | 44.69997 | 38868 ft | 491 kts | 34° |
| 2026-05-05 23:31 | 1.18313 | 44.73804 | 38868 ft | 492 kts | 34° |
| 2026-05-05 23:32 | 1.24017 | 44.77648 | 38865 ft | 492 kts | 34° |
| 2026-05-05 23:32 | 1.29674 | 44.81460 | 38868 ft | 493 kts | 34° |
| 2026-05-05 23:33 | 1.35364 | 44.85295 | 38868 ft | 494 kts | 34° |
| 2026-05-05 23:33 | 1.41062 | 44.89136 | 38866 ft | 494 kts | 34° |
| 2026-05-05 23:34 | 1.46774 | 44.92986 | 38873 ft | 495 kts | 34° |
| 2026-05-05 23:34 | 1.52488 | 44.96837 | 38870 ft | 496 kts | 34° |
| 2026-05-05 23:35 | 1.58217 | 45.00699 | 38871 ft | 496 kts | 34° |
| 2026-05-05 23:35 | 1.63940 | 45.04558 | 38870 ft | 496 kts | 34° |
| 2026-05-05 23:36 | 1.69639 | 45.08400 | 38870 ft | 496 kts | 34° |
| 2026-05-05 23:36 | 1.75375 | 45.12268 | 38871 ft | 495 kts | 34° |
| 2026-05-05 23:37 | 1.81072 | 45.16110 | 38873 ft | 495 kts | 34° |
| 2026-05-05 23:37 | 1.86809 | 45.19978 | 38872 ft | 496 kts | 34° |
| 2026-05-05 23:38 | 1.92524 | 45.23833 | 38871 ft | 496 kts | 34° |
| 2026-05-05 23:38 | 1.98245 | 45.27692 | 38870 ft | 497 kts | 34° |
| 2026-05-05 23:39 | 2.03993 | 45.31490 | 38870 ft | 498 kts | 32° |
| 2026-05-05 23:39 | 2.09953 | 45.35021 | 38873 ft | 498 kts | 30° |
| 2026-05-05 23:40 | 2.15946 | 45.38505 | 38873 ft | 498 kts | 31° |
| 2026-05-05 23:40 | 2.21916 | 45.42035 | 38874 ft | 498 kts | 31° |
| 2026-05-05 23:41 | 2.27841 | 45.45575 | 38874 ft | 498 kts | 31° |
| 2026-05-05 23:41 | 2.33813 | 45.49153 | 38873 ft | 498 kts | 31° |
| 2026-05-05 23:42 | 2.39743 | 45.52705 | 38873 ft | 497 kts | 31° |
| 2026-05-05 23:42 | 2.45679 | 45.56259 | 38878 ft | 497 kts | 31° |
| 2026-05-05 23:43 | 2.51597 | 45.59801 | 38876 ft | 497 kts | 31° |
| 2026-05-05 23:43 | 2.57542 | 45.63361 | 38876 ft | 498 kts | 31° |
| 2026-05-05 23:44 | 2.63473 | 45.66912 | 38878 ft | 498 kts | 31° |
| 2026-05-05 23:44 | 2.69444 | 45.70487 | 38879 ft | 498 kts | 31° |
| 2026-05-05 23:45 | 2.75384 | 45.74044 | 38876 ft | 499 kts | 31° |
| 2026-05-05 23:45 | 2.81347 | 45.77616 | 38876 ft | 499 kts | 31° |
| 2026-05-05 23:46 | 2.87294 | 45.81178 | 38875 ft | 499 kts | 31° |
| 2026-05-05 23:46 | 2.93242 | 45.84742 | 38881 ft | 499 kts | 31° |
| 2026-05-05 23:47 | 2.99209 | 45.88317 | 38879 ft | 499 kts | 31° |
| 2026-05-05 23:47 | 3.05177 | 45.91893 | 38881 ft | 500 kts | 31° |
| 2026-05-05 23:48 | 3.11119 | 45.95454 | 38881 ft | 500 kts | 31° |
| 2026-05-05 23:48 | 3.17091 | 45.99034 | 38880 ft | 500 kts | 31° |
| 2026-05-05 23:49 | 3.23067 | 46.02616 | 38881 ft | 500 kts | 31° |
| 2026-05-05 23:49 | 3.29003 | 46.06176 | 38882 ft | 500 kts | 31° |
| 2026-05-05 23:50 | 3.34985 | 46.09762 | 38881 ft | 500 kts | 31° |
| 2026-05-05 23:50 | 3.40965 | 46.13349 | 38882 ft | 500 kts | 31° |
| 2026-05-05 23:51 | 3.46944 | 46.16935 | 38882 ft | 500 kts | 31° |
| 2026-05-05 23:51 | 3.52880 | 46.20496 | 38885 ft | 501 kts | 31° |
| 2026-05-05 23:52 | 3.58864 | 46.24086 | 38884 ft | 501 kts | 31° |
| 2026-05-05 23:52 | 3.64863 | 46.27687 | 38883 ft | 501 kts | 31° |
| 2026-05-05 23:53 | 3.70818 | 46.31261 | 38880 ft | 502 kts | 31° |
| 2026-05-05 23:53 | 3.76805 | 46.34855 | 38876 ft | 502 kts | 31° |
| 2026-05-05 23:54 | 3.82827 | 46.38470 | 38881 ft | 502 kts | 31° |
| 2026-05-05 23:54 | 3.88788 | 46.42049 | 38880 ft | 502 kts | 31° |
| 2026-05-05 23:55 | 3.94781 | 46.45649 | 38879 ft | 502 kts | 31° |
| 2026-05-05 23:55 | 3.99761 | 46.48640 | 38880 ft | 502 kts | 32° |
| 2026-05-05 23:56 | 4.05747 | 46.52237 | 38878 ft | 502 kts | 32° |
| 2026-05-05 23:56 | 4.11732 | 46.55833 | 38881 ft | 502 kts | 32° |
| 2026-05-05 23:57 | 4.17721 | 46.59432 | 38880 ft | 501 kts | 32° |
| 2026-05-05 23:57 | 4.23702 | 46.63027 | 38876 ft | 501 kts | 32° |
| 2026-05-05 23:58 | 4.29655 | 46.66606 | 38875 ft | 501 kts | 32° |
| 2026-05-05 23:58 | 4.35631 | 46.70200 | 38876 ft | 501 kts | 32° |
| 2026-05-05 23:59 | 4.41603 | 46.73792 | 38875 ft | 500 kts | 32° |
| 2026-05-05 23:59 | 4.47574 | 46.77383 | 38872 ft | 500 kts | 32° |
| 2026-05-06 00:00 | 4.53545 | 46.80976 | 38874 ft | 500 kts | 32° |
| 2026-05-06 00:00 | 4.59505 | 46.84562 | 38871 ft | 499 kts | 32° |
| 2026-05-06 00:01 | 4.65469 | 46.88152 | 38871 ft | 499 kts | 32° |
| 2026-05-06 00:01 | 4.71428 | 46.91739 | 38871 ft | 499 kts | 32° |
| 2026-05-06 00:02 | 4.77377 | 46.95321 | 38870 ft | 499 kts | 32° |
| 2026-05-06 00:02 | 4.83292 | 46.98884 | 38873 ft | 499 kts | 32° |
| 2026-05-06 00:03 | 4.89244 | 47.02469 | 38872 ft | 499 kts | 32° |
| 2026-05-06 00:03 | 4.95206 | 47.06061 | 38870 ft | 499 kts | 32° |
| 2026-05-06 00:04 | 5.01155 | 47.09647 | 38870 ft | 499 kts | 32° |
| 2026-05-06 00:04 | 5.07119 | 47.13241 | 38870 ft | 499 kts | 32° |
| 2026-05-06 00:05 | 5.16032 | 47.18617 | 38866 ft | 499 kts | 32° |
| 2026-05-06 00:06 | 5.21996 | 47.22213 | 38868 ft | 499 kts | 32° |
| 2026-05-06 00:06 | 5.27910 | 47.25780 | 38866 ft | 499 kts | 32° |
| 2026-05-06 00:07 | 5.33867 | 47.29374 | 38869 ft | 498 kts | 32° |
| 2026-05-06 00:07 | 5.39816 | 47.32965 | 38865 ft | 498 kts | 32° |
| 2026-05-06 00:08 | 5.45766 | 47.36557 | 38863 ft | 497 kts | 32° |
| 2026-05-06 00:08 | 5.51675 | 47.40125 | 38861 ft | 497 kts | 32° |
| 2026-05-06 00:09 | 5.57570 | 47.43685 | 38864 ft | 496 kts | 31° |
| 2026-05-06 00:09 | 5.63479 | 47.47255 | 38863 ft | 495 kts | 31° |
| 2026-05-06 00:10 | 5.69392 | 47.50839 | 38859 ft | 495 kts | 32° |
| 2026-05-06 00:10 | 5.75250 | 47.54432 | 38859 ft | 495 kts | 32° |
| 2026-05-06 00:11 | 5.81121 | 47.58038 | 38857 ft | 494 kts | 32° |
| 2026-05-06 00:11 | 5.86983 | 47.61635 | 38856 ft | 494 kts | 32° |
| 2026-05-06 00:12 | 5.92880 | 47.65250 | 38857 ft | 494 kts | 32° |
| 2026-05-06 00:12 | 5.98742 | 47.68843 | 38857 ft | 494 kts | 32° |
| 2026-05-06 00:13 | 6.04604 | 47.72439 | 38857 ft | 494 kts | 32° |
| 2026-05-06 00:13 | 6.10478 | 47.76042 | 38857 ft | 494 kts | 32° |
| 2026-05-06 00:14 | 6.16345 | 47.79641 | 38854 ft | 493 kts | 32° |
| 2026-05-06 00:14 | 6.22166 | 47.83214 | 38857 ft | 493 kts | 32° |
| 2026-05-06 00:15 | 6.28031 | 47.86815 | 38854 ft | 493 kts | 32° |
| 2026-05-06 00:15 | 6.33860 | 47.90395 | 38855 ft | 492 kts | 32° |
| 2026-05-06 00:16 | 6.39740 | 47.94006 | 38850 ft | 492 kts | 32° |
| 2026-05-06 00:16 | 6.45557 | 47.97580 | 38852 ft | 491 kts | 32° |
| 2026-05-06 00:17 | 6.51365 | 48.01150 | 38851 ft | 491 kts | 32° |
| 2026-05-06 00:17 | 6.57192 | 48.04732 | 38850 ft | 490 kts | 32° |
| 2026-05-06 00:18 | 6.63003 | 48.08305 | 38851 ft | 490 kts | 32° |
| 2026-05-06 00:18 | 6.68812 | 48.11878 | 38852 ft | 489 kts | 32° |
| 2026-05-06 00:19 | 6.74619 | 48.15452 | 38849 ft | 489 kts | 32° |
| 2026-05-06 00:19 | 6.80415 | 48.19019 | 38850 ft | 489 kts | 32° |
| 2026-05-06 00:20 | 6.86227 | 48.22597 | 38852 ft | 489 kts | 32° |
| 2026-05-06 00:20 | 6.92037 | 48.26174 | 38853 ft | 489 kts | 32° |
| 2026-05-06 00:21 | 6.97804 | 48.29727 | 38857 ft | 489 kts | 32° |
| 2026-05-06 00:21 | 7.03609 | 48.33303 | 38858 ft | 489 kts | 32° |
| 2026-05-06 00:22 | 7.09416 | 48.36883 | 38858 ft | 489 kts | 32° |
| 2026-05-06 00:22 | 7.15243 | 48.40476 | 38863 ft | 490 kts | 32° |
| 2026-05-06 00:23 | 7.21054 | 48.44060 | 38864 ft | 490 kts | 32° |
| 2026-05-06 00:23 | 7.26847 | 48.47633 | 38862 ft | 490 kts | 32° |
| 2026-05-06 00:24 | 7.32652 | 48.51215 | 38866 ft | 490 kts | 32° |
| 2026-05-06 00:24 | 7.38470 | 48.54789 | 38871 ft | 491 kts | 31° |
| 2026-05-06 00:25 | 7.44348 | 48.58338 | 38875 ft | 490 kts | 31° |
| 2026-05-06 00:25 | 7.50198 | 48.61867 | 38876 ft | 490 kts | 31° |
| 2026-05-06 00:26 | 7.56039 | 48.65401 | 38878 ft | 490 kts | 31° |
| 2026-05-06 00:26 | 7.61881 | 48.68942 | 38877 ft | 490 kts | 31° |
| 2026-05-06 00:27 | 7.67741 | 48.72497 | 38885 ft | 490 kts | 32° |
| 2026-05-06 00:27 | 7.73552 | 48.76022 | 38885 ft | 490 kts | 32° |
| 2026-05-06 00:28 | 7.79403 | 48.79572 | 38888 ft | 490 kts | 32° |
| 2026-05-06 00:28 | 7.85250 | 48.83122 | 38890 ft | 490 kts | 32° |
| 2026-05-06 00:29 | 7.91080 | 48.86662 | 38889 ft | 490 kts | 32° |
| 2026-05-06 00:29 | 7.96928 | 48.90214 | 38888 ft | 490 kts | 32° |
| 2026-05-06 00:30 | 8.02763 | 48.93760 | 38887 ft | 490 kts | 32° |
| 2026-05-06 00:30 | 8.08583 | 48.97297 | 38886 ft | 489 kts | 32° |
| 2026-05-06 00:31 | 8.14444 | 49.00861 | 38881 ft | 489 kts | 32° |
| 2026-05-06 00:31 | 8.20273 | 49.04407 | 38884 ft | 489 kts | 32° |
| 2026-05-06 00:32 | 8.26086 | 49.07944 | 38886 ft | 489 kts | 32° |
| 2026-05-06 00:32 | 8.31926 | 49.11499 | 38880 ft | 489 kts | 32° |
| 2026-05-06 00:33 | 8.37753 | 49.15047 | 38881 ft | 489 kts | 32° |
| 2026-05-06 00:33 | 8.43595 | 49.18606 | 38883 ft | 489 kts | 32° |
| 2026-05-06 00:34 | 8.49414 | 49.22152 | 38890 ft | 489 kts | 32° |
| 2026-05-06 00:34 | 8.55246 | 49.25706 | 38890 ft | 489 kts | 32° |
| 2026-05-06 00:35 | 8.61044 | 49.29241 | 38891 ft | 489 kts | 32° |
| 2026-05-06 00:35 | 8.66887 | 49.32811 | 38893 ft | 489 kts | 32° |
| 2026-05-06 00:36 | 8.72725 | 49.36376 | 38899 ft | 489 kts | 32° |
| 2026-05-06 00:36 | 8.78559 | 49.39938 | 38902 ft | 489 kts | 32° |
| 2026-05-06 00:37 | 8.84365 | 49.43485 | 38901 ft | 489 kts | 32° |
| 2026-05-06 00:37 | 8.90197 | 49.47050 | 38900 ft | 489 kts | 32° |
| 2026-05-06 00:38 | 8.96001 | 49.50601 | 38900 ft | 489 kts | 32° |
| 2026-05-06 00:38 | 9.01831 | 49.54168 | 38899 ft | 489 kts | 32° |
| 2026-05-06 00:39 | 9.07651 | 49.57730 | 38901 ft | 489 kts | 32° |
| 2026-05-06 00:39 | 9.13471 | 49.61294 | 38900 ft | 489 kts | 32° |
| 2026-05-06 00:40 | 9.18323 | 49.64266 | 38900 ft | 489 kts | 32° |
| 2026-05-06 00:40 | 9.24161 | 49.67845 | 38904 ft | 489 kts | 32° |
| 2026-05-06 00:41 | 9.29979 | 49.71416 | 38901 ft | 489 kts | 32° |
| 2026-05-06 00:41 | 9.35773 | 49.74968 | 38902 ft | 489 kts | 32° |
| 2026-05-06 00:42 | 9.41603 | 49.78545 | 38903 ft | 489 kts | 32° |
| 2026-05-06 00:42 | 9.47411 | 49.82109 | 38905 ft | 489 kts | 32° |
| 2026-05-06 00:43 | 9.53238 | 49.85689 | 38904 ft | 489 kts | 32° |
| 2026-05-06 00:43 | 9.59064 | 49.89269 | 38905 ft | 489 kts | 32° |
| 2026-05-06 00:44 | 9.64868 | 49.92837 | 38903 ft | 489 kts | 32° |
| 2026-05-06 00:44 | 9.70681 | 49.96412 | 38904 ft | 489 kts | 32° |
| 2026-05-06 00:45 | 9.76501 | 49.99993 | 38900 ft | 489 kts | 32° |
| 2026-05-06 00:45 | 9.82326 | 50.03578 | 38899 ft | 489 kts | 32° |
| 2026-05-06 00:46 | 9.88114 | 50.07142 | 38894 ft | 489 kts | 32° |
| 2026-05-06 00:46 | 9.93919 | 50.10718 | 38893 ft | 489 kts | 32° |
| 2026-05-06 00:47 | 9.99738 | 50.14305 | 38889 ft | 488 kts | 32° |
| 2026-05-06 00:47 | 10.05542 | 50.17883 | 38886 ft | 489 kts | 32° |
| 2026-05-06 00:48 | 10.11342 | 50.21460 | 38879 ft | 489 kts | 32° |
| 2026-05-06 00:48 | 10.17179 | 50.25062 | 38882 ft | 489 kts | 32° |
| 2026-05-06 00:49 | 10.22956 | 50.28628 | 38882 ft | 489 kts | 32° |
| 2026-05-06 00:49 | 10.28761 | 50.32213 | 38880 ft | 488 kts | 32° |
| 2026-05-06 00:50 | 10.34575 | 50.35805 | 38871 ft | 488 kts | 32° |
| 2026-05-06 00:50 | 10.40375 | 50.39391 | 38872 ft | 488 kts | 32° |
| 2026-05-06 00:51 | 10.46187 | 50.42985 | 38871 ft | 489 kts | 32° |
| 2026-05-06 00:51 | 10.51970 | 50.46563 | 38875 ft | 489 kts | 32° |
| 2026-05-06 00:52 | 10.57770 | 50.50153 | 38873 ft | 489 kts | 32° |
| 2026-05-06 00:52 | 10.63576 | 50.53748 | 38874 ft | 489 kts | 32° |
| 2026-05-06 00:53 | 10.69402 | 50.57357 | 38872 ft | 489 kts | 32° |
| 2026-05-06 00:53 | 10.75219 | 50.60963 | 38869 ft | 488 kts | 32° |
| 2026-05-06 00:54 | 10.81002 | 50.64549 | 38867 ft | 488 kts | 32° |
| 2026-05-06 00:54 | 10.86826 | 50.68162 | 38862 ft | 488 kts | 32° |
| 2026-05-06 00:55 | 10.92594 | 50.71742 | 38864 ft | 488 kts | 32° |
| 2026-05-06 00:55 | 10.98419 | 50.75358 | 38864 ft | 488 kts | 32° |
| 2026-05-06 00:56 | 11.04223 | 50.78964 | 38861 ft | 488 kts | 32° |
| 2026-05-06 00:56 | 11.09998 | 50.82553 | 38861 ft | 489 kts | 32° |
| 2026-05-06 00:57 | 11.15799 | 50.86160 | 38859 ft | 489 kts | 32° |
| 2026-05-06 00:57 | 11.21603 | 50.89771 | 38855 ft | 489 kts | 32° |
| 2026-05-06 00:58 | 11.27406 | 50.93383 | 38853 ft | 489 kts | 32° |
| 2026-05-06 00:58 | 11.33218 | 50.97002 | 38851 ft | 489 kts | 32° |
| 2026-05-06 00:59 | 11.39015 | 51.00613 | 38844 ft | 489 kts | 32° |
| 2026-05-06 00:59 | 11.44790 | 51.04211 | 38835 ft | 489 kts | 32° |
| 2026-05-06 01:00 | 11.50599 | 51.07824 | 38833 ft | 489 kts | 32° |
| 2026-05-06 01:00 | 11.56433 | 51.11455 | 38830 ft | 489 kts | 32° |
| 2026-05-06 01:01 | 11.62237 | 51.15069 | 38825 ft | 489 kts | 33° |
| 2026-05-06 01:01 | 11.68058 | 51.18696 | 38821 ft | 489 kts | 33° |
| 2026-05-06 01:02 | 11.73834 | 51.22298 | 38822 ft | 490 kts | 33° |
| 2026-05-06 01:02 | 11.79672 | 51.25941 | 38817 ft | 490 kts | 33° |
| 2026-05-06 01:03 | 11.85463 | 51.29556 | 38810 ft | 490 kts | 33° |
| 2026-05-06 01:03 | 11.91278 | 51.33187 | 38811 ft | 490 kts | 33° |
| 2026-05-06 01:04 | 11.97065 | 51.36803 | 38816 ft | 490 kts | 33° |
| 2026-05-06 01:04 | 12.02898 | 51.40451 | 38820 ft | 490 kts | 33° |
| 2026-05-06 01:05 | 12.08702 | 51.44084 | 38814 ft | 490 kts | 33° |
| 2026-05-06 01:05 | 12.14519 | 51.47716 | 38813 ft | 490 kts | 33° |
| 2026-05-06 01:06 | 12.20392 | 51.51387 | 38815 ft | 490 kts | 33° |
| 2026-05-06 01:06 | 12.26218 | 51.55031 | 38816 ft | 490 kts | 33° |
| 2026-05-06 01:07 | 12.32053 | 51.58683 | 38816 ft | 490 kts | 33° |
| 2026-05-06 01:07 | 12.37866 | 51.62326 | 38821 ft | 490 kts | 33° |
| 2026-05-06 01:08 | 12.43669 | 51.65964 | 38820 ft | 491 kts | 33° |
| 2026-05-06 01:08 | 12.49477 | 51.69608 | 38819 ft | 491 kts | 33° |
| 2026-05-06 01:09 | 12.55306 | 51.73264 | 38820 ft | 491 kts | 33° |
| 2026-05-06 01:09 | 12.61125 | 51.76917 | 38819 ft | 491 kts | 33° |
| 2026-05-06 01:10 | 12.66950 | 51.80577 | 38820 ft | 491 kts | 33° |
| 2026-05-06 01:10 | 12.72778 | 51.84239 | 38824 ft | 491 kts | 33° |
| 2026-05-06 01:11 | 12.78580 | 51.87888 | 38823 ft | 491 kts | 33° |
| 2026-05-06 01:11 | 12.84408 | 51.91556 | 38823 ft | 491 kts | 33° |
| 2026-05-06 01:12 | 12.90230 | 51.95220 | 38824 ft | 491 kts | 33° |
| 2026-05-06 01:12 | 12.96062 | 51.98893 | 38825 ft | 491 kts | 33° |
| 2026-05-06 01:13 | 13.01885 | 52.02562 | 38825 ft | 491 kts | 33° |
| 2026-05-06 01:13 | 13.07715 | 52.06239 | 38823 ft | 492 kts | 33° |
| 2026-05-06 01:14 | 13.16460 | 52.11757 | 38827 ft | 492 kts | 33° |
| 2026-05-06 01:14 | 13.22287 | 52.15438 | 38825 ft | 492 kts | 33° |
| 2026-05-06 01:15 | 13.28089 | 52.19104 | 38826 ft | 492 kts | 33° |
| 2026-05-06 01:15 | 13.33937 | 52.22802 | 38827 ft | 492 kts | 33° |
| 2026-05-06 01:16 | 13.39768 | 52.26490 | 38827 ft | 492 kts | 33° |
| 2026-05-06 01:16 | 13.45578 | 52.30178 | 38826 ft | 492 kts | 33° |
| 2026-05-06 01:17 | 13.51380 | 52.33863 | 38827 ft | 492 kts | 33° |
| 2026-05-06 01:17 | 13.57236 | 52.37585 | 38826 ft | 492 kts | 33° |
| 2026-05-06 01:18 | 13.63061 | 52.41288 | 38830 ft | 492 kts | 33° |
| 2026-05-06 01:18 | 13.68874 | 52.44988 | 38828 ft | 492 kts | 33° |
| 2026-05-06 01:19 | 13.74683 | 52.48688 | 38832 ft | 492 kts | 33° |
| 2026-05-06 01:19 | 13.80514 | 52.52403 | 38829 ft | 492 kts | 33° |
| 2026-05-06 01:20 | 13.86314 | 52.56098 | 38829 ft | 492 kts | 33° |
| 2026-05-06 01:20 | 13.92138 | 52.59813 | 38830 ft | 492 kts | 33° |
| 2026-05-06 01:21 | 13.97948 | 52.63521 | 38831 ft | 492 kts | 33° |
| 2026-05-06 01:21 | 14.03767 | 52.67236 | 38831 ft | 492 kts | 33° |
| 2026-05-06 01:22 | 14.08605 | 52.70328 | 38831 ft | 492 kts | 33° |
| 2026-05-06 01:22 | 14.15372 | 52.74654 | 38834 ft | 491 kts | 33° |
| 2026-05-06 01:23 | 14.20209 | 52.77748 | 38830 ft | 491 kts | 33° |
| 2026-05-06 01:23 | 14.26031 | 52.81474 | 38833 ft | 491 kts | 33° |
| 2026-05-06 01:24 | 14.31821 | 52.85182 | 38832 ft | 491 kts | 33° |
| 2026-05-06 01:24 | 14.37627 | 52.88903 | 38834 ft | 491 kts | 33° |
| 2026-05-06 01:25 | 14.43420 | 52.92618 | 38831 ft | 491 kts | 33° |
| 2026-05-06 01:25 | 14.49247 | 52.96358 | 38831 ft | 491 kts | 33° |
| 2026-05-06 01:26 | 14.55031 | 53.00071 | 38832 ft | 491 kts | 33° |
| 2026-05-06 01:26 | 14.60846 | 53.03807 | 38834 ft | 491 kts | 33° |
| 2026-05-06 01:27 | 14.66635 | 53.07529 | 38835 ft | 491 kts | 33° |
| 2026-05-06 01:27 | 14.72428 | 53.11229 | 38834 ft | 491 kts | 33° |
| 2026-05-06 01:28 | 14.78249 | 53.14927 | 38834 ft | 491 kts | 33° |
| 2026-05-06 01:28 | 14.84070 | 53.18631 | 38834 ft | 491 kts | 33° |
| 2026-05-06 01:29 | 14.89866 | 53.22327 | 38838 ft | 491 kts | 33° |
| 2026-05-06 01:29 | 14.95664 | 53.26029 | 38834 ft | 491 kts | 33° |
| 2026-05-06 01:30 | 15.01468 | 53.29737 | 38835 ft | 490 kts | 33° |
| 2026-05-06 01:30 | 15.07269 | 53.33445 | 38834 ft | 490 kts | 33° |
| 2026-05-06 01:31 | 15.13088 | 53.37167 | 38834 ft | 490 kts | 33° |
| 2026-05-06 01:31 | 15.18879 | 53.40872 | 38838 ft | 490 kts | 33° |
| 2026-05-06 01:32 | 15.24691 | 53.44594 | 38837 ft | 490 kts | 33° |
| 2026-05-06 01:32 | 15.30478 | 53.48303 | 38834 ft | 490 kts | 33° |
| 2026-05-06 01:33 | 15.36298 | 53.52036 | 38833 ft | 490 kts | 33° |
| 2026-05-06 01:33 | 15.42105 | 53.55763 | 38837 ft | 490 kts | 33° |
| 2026-05-06 01:34 | 15.47878 | 53.59520 | 38834 ft | 490 kts | 34° |
| 2026-05-06 01:34 | 15.53620 | 53.63364 | 38834 ft | 490 kts | 34° |
| 2026-05-06 01:35 | 15.59347 | 53.67208 | 38834 ft | 491 kts | 34° |
| 2026-05-06 01:35 | 15.65085 | 53.71044 | 38835 ft | 491 kts | 34° |
| 2026-05-06 01:36 | 15.70801 | 53.74860 | 38834 ft | 491 kts | 34° |
| 2026-05-06 01:36 | 15.76539 | 53.78690 | 38834 ft | 491 kts | 34° |
| 2026-05-06 01:37 | 15.82292 | 53.82536 | 38836 ft | 491 kts | 34° |
| 2026-05-06 01:37 | 15.88037 | 53.86379 | 38834 ft | 491 kts | 34° |
| 2026-05-06 01:38 | 15.93767 | 53.90185 | 38834 ft | 491 kts | 33° |
| 2026-05-06 01:38 | 15.99561 | 53.93993 | 38833 ft | 491 kts | 33° |
| 2026-05-06 01:39 | 16.05349 | 53.97802 | 38832 ft | 491 kts | 33° |
| 2026-05-06 01:39 | 16.11091 | 54.01592 | 38831 ft | 491 kts | 33° |
| 2026-05-06 01:40 | 16.16869 | 54.05413 | 38830 ft | 492 kts | 33° |
| 2026-05-06 01:40 | 16.22647 | 54.09237 | 38831 ft | 492 kts | 33° |
| 2026-05-06 01:41 | 16.28407 | 54.13051 | 38829 ft | 492 kts | 33° |
| 2026-05-06 01:41 | 16.34185 | 54.16880 | 38825 ft | 492 kts | 33° |
| 2026-05-06 01:42 | 16.39982 | 54.20722 | 38824 ft | 493 kts | 33° |
| 2026-05-06 01:42 | 16.45760 | 54.24556 | 38824 ft | 493 kts | 33° |
| 2026-05-06 01:43 | 16.51532 | 54.28389 | 38823 ft | 493 kts | 33° |
| 2026-05-06 01:43 | 16.57326 | 54.32237 | 38818 ft | 493 kts | 33° |
| 2026-05-06 01:44 | 16.63105 | 54.36081 | 38819 ft | 493 kts | 33° |
| 2026-05-06 01:44 | 16.68889 | 54.39930 | 38816 ft | 493 kts | 33° |
| 2026-05-06 01:45 | 16.74679 | 54.43787 | 38820 ft | 494 kts | 33° |
| 2026-05-06 01:45 | 16.80480 | 54.47652 | 38826 ft | 494 kts | 33° |
| 2026-05-06 01:46 | 16.86267 | 54.51511 | 38829 ft | 494 kts | 33° |
| 2026-05-06 01:46 | 16.92052 | 54.55373 | 38837 ft | 494 kts | 33° |
| 2026-05-06 01:47 | 16.97860 | 54.59249 | 38846 ft | 495 kts | 33° |
| 2026-05-06 01:47 | 17.03643 | 54.63111 | 38849 ft | 495 kts | 33° |
| 2026-05-06 01:48 | 17.09456 | 54.66996 | 38850 ft | 495 kts | 33° |
| 2026-05-06 01:48 | 17.15254 | 54.70875 | 38850 ft | 495 kts | 33° |
| 2026-05-06 01:49 | 17.21027 | 54.74740 | 38853 ft | 495 kts | 33° |
| 2026-05-06 01:49 | 17.26530 | 54.78427 | 38853 ft | 494 kts | 33° |
| 2026-05-06 01:50 | 17.32225 | 54.82467 | 38853 ft | 494 kts | 36° |
| 2026-05-06 01:50 | 17.37762 | 54.86724 | 38854 ft | 495 kts | 37° |
| 2026-05-06 01:51 | 17.43329 | 54.90997 | 38853 ft | 495 kts | 36° |
| 2026-05-06 01:51 | 17.48900 | 54.95216 | 38849 ft | 495 kts | 36° |
| 2026-05-06 01:52 | 17.54494 | 54.99429 | 38847 ft | 495 kts | 36° |
| 2026-05-06 01:52 | 17.60061 | 55.03622 | 38841 ft | 495 kts | 36° |
| 2026-05-06 01:53 | 17.65649 | 55.07837 | 38838 ft | 495 kts | 36° |
| 2026-05-06 01:53 | 17.71250 | 55.12066 | 38829 ft | 495 kts | 36° |
| 2026-05-06 01:54 | 17.76831 | 55.16285 | 38829 ft | 495 kts | 36° |
| 2026-05-06 01:54 | 17.82405 | 55.20504 | 38827 ft | 495 kts | 36° |
| 2026-05-06 01:55 | 17.87998 | 55.24738 | 38824 ft | 496 kts | 36° |
| 2026-05-06 01:55 | 17.93602 | 55.28983 | 38829 ft | 496 kts | 36° |
| 2026-05-06 01:56 | 17.99185 | 55.33217 | 38828 ft | 495 kts | 36° |
| 2026-05-06 01:56 | 18.04773 | 55.37459 | 38826 ft | 495 kts | 36° |
| 2026-05-06 01:57 | 18.10381 | 55.41701 | 38827 ft | 496 kts | 34° |
| 2026-05-06 01:57 | 18.16121 | 55.45662 | 38824 ft | 496 kts | 32° |
| 2026-05-06 01:58 | 18.21953 | 55.49549 | 38824 ft | 496 kts | 32° |
| 2026-05-06 01:58 | 18.27745 | 55.53461 | 38824 ft | 496 kts | 33° |
| 2026-05-06 01:59 | 18.33566 | 55.57442 | 38824 ft | 496 kts | 33° |
| 2026-05-06 01:59 | 18.39314 | 55.61395 | 38827 ft | 496 kts | 33° |
| 2026-05-06 02:00 | 18.45111 | 55.65376 | 38825 ft | 496 kts | 33° |
| 2026-05-06 02:00 | 18.50894 | 55.69348 | 38827 ft | 496 kts | 33° |
| 2026-05-06 02:01 | 18.56655 | 55.73309 | 38825 ft | 496 kts | 33° |
| 2026-05-06 02:01 | 18.62453 | 55.77300 | 38829 ft | 497 kts | 33° |
| 2026-05-06 02:02 | 18.68240 | 55.81287 | 38826 ft | 497 kts | 33° |
| 2026-05-06 02:02 | 18.74039 | 55.85284 | 38825 ft | 497 kts | 33° |
| 2026-05-06 02:03 | 18.79828 | 55.89279 | 38827 ft | 497 kts | 33° |
| 2026-05-06 02:03 | 18.85618 | 55.93277 | 38828 ft | 497 kts | 33° |
| 2026-05-06 02:04 | 18.91408 | 55.97280 | 38829 ft | 498 kts | 33° |
| 2026-05-06 02:04 | 18.97410 | 56.00903 | 38832 ft | 497 kts | 22° |